Time,TemperatureF,DewpointF,PressureIn,WindDirection,WindDirectionDegrees,WindSpeedMPH,WindSpeedGustMPH,Humidity,HourlyPrecipIn,Conditions,Clouds,dailyrainin,SoftwareType,DateUTC
2013-01-15 00:02:00,17.9,13.6,30.52,ENE,69,3.0,7.0,83,0.00,,---,0.00,VWS V14.01,2013-01-15 06:02:00,
2013-01-15 00:07:00,17.9,13.6,30.52,East,92,1.0,4.0,83,0.00,,---,0.00,VWS V14.01,2013-01-15 06:07:00,
2013-01-15 00:12:00,17.7,13.7,30.52,East,81,3.0,5.0,84,0.00,,---,0.00,VWS V14.01,2013-01-15 06:12:00,
2013-01-15 00:17:00,17.7,14.0,30.52,East,99,1.0,5.0,85,0.00,,---,0.00,VWS V14.01,2013-01-15 06:17:00,
2013-01-15 00:22:00,17.9,14.4,30.53,ESE,109,0.0,5.0,86,0.00,,---,0.00,VWS V14.01,2013-01-15 06:22:00,
2013-01-15 00:27:00,18.0,14.5,30.52,East,82,2.0,5.0,86,0.00,,---,0.00,VWS V14.01,2013-01-15 06:27:00,
2013-01-15 00:32:00,18.1,14.9,30.52,ESE,114,1.0,5.0,87,0.00,,---,0.00,VWS V14.01,2013-01-15 06:32:00,
2013-01-15 00:37:00,18.0,14.5,30.52,ESE,116,0.0,1.0,86,0.00,,---,0.00,VWS V14.01,2013-01-15 06:37:00,
2013-01-15 00:42:00,17.8,14.3,30.52,ESE,119,0.0,1.0,86,0.00,,---,0.00,VWS V14.01,2013-01-15 06:42:00,
2013-01-15 00:47:00,17.6,14.4,30.52,ESE,117,0.0,1.0,87,0.00,,---,0.00,VWS V14.01,2013-01-15 06:47:00,
2013-01-15 00:52:00,17.4,14.2,30.52,East,83,3.0,3.0,87,0.00,,---,0.00,VWS V14.01,2013-01-15 06:52:00,
2013-01-15 00:57:00,17.4,14.5,30.52,East,88,3.0,8.0,88,0.00,,---,0.00,VWS V14.01,2013-01-15 06:57:00,
2013-01-15 01:02:00,17.4,14.5,30.52,East,87,0.0,8.0,88,0.00,,---,0.00,VWS V14.01,2013-01-15 07:02:00,
2013-01-15 01:07:00,17.3,14.1,30.52,ESE,104,0.0,2.0,87,0.00,,---,0.00,VWS V14.01,2013-01-15 07:07:00,
2013-01-15 01:12:00,17.1,14.2,30.52,ESE,104,1.0,2.0,88,0.00,,---,0.00,VWS V14.01,2013-01-15 07:12:00,
2013-01-15 01:17:00,16.8,13.9,30.51,ESE,103,0.0,2.0,88,0.00,,---,0.00,VWS V14.01,2013-01-15 07:17:00,
2013-01-15 01:22:00,16.7,13.8,30.51,ESE,103,0.0,2.0,88,0.00,,---,0.00,VWS V14.01,2013-01-15 07:22:00,
2013-01-15 01:27:00,16.8,14.1,30.51,East,92,0.0,2.0,89,0.00,,---,0.00,VWS V14.01,2013-01-15 07:27:00,
2013-01-15 01:32:00,16.8,14.1,30.51,East,96,1.0,3.0,89,0.00,,---,0.00,VWS V14.01,2013-01-15 07:32:00,
2013-01-15 01:37:00,16.8,14.1,30.51,East,88,1.0,3.0,89,0.00,,---,0.00,VWS V14.01,2013-01-15 07:37:00,
2013-01-15 01:42:00,16.7,14.0,30.51,East,83,2.0,4.0,89,0.00,,---,0.00,VWS V14.01,2013-01-15 07:42:00,
2013-01-15 01:47:00,16.7,14.0,30.51,East,92,1.0,4.0,89,0.00,,---,0.00,VWS V14.01,2013-01-15 07:47:00,
2013-01-15 01:52:00,16.6,13.9,30.51,East,92,0.0,4.0,89,0.00,,---,0.00,VWS V14.01,2013-01-15 07:52:00,
2013-01-15 01:57:00,16.6,13.7,30.51,East,101,0.0,4.0,88,0.00,,---,0.00,VWS V14.01,2013-01-15 07:57:00,
2013-01-15 02:02:00,16.6,13.7,30.50,East,94,1.0,4.0,88,0.00,,---,0.00,VWS V14.01,2013-01-15 08:02:00,
2013-01-15 02:07:00,16.6,13.7,30.51,East,89,2.0,2.0,88,0.00,,---,0.00,VWS V14.01,2013-01-15 08:07:00,
2013-01-15 02:12:00,16.6,13.4,30.51,East,101,1.0,2.0,87,0.00,,---,0.00,VWS V14.01,2013-01-15 08:12:00,
2013-01-15 02:17:00,16.6,13.4,30.51,East,88,0.0,3.0,87,0.00,,---,0.00,VWS V14.01,2013-01-15 08:17:00,
2013-01-15 02:22:00,16.5,13.1,30.50,East,88,0.0,3.0,86,0.00,,---,0.00,VWS V14.01,2013-01-15 08:22:00,
2013-01-15 02:27:00,16.5,13.1,30.51,East,89,1.0,3.0,86,0.00,,---,0.00,VWS V14.01,2013-01-15 08:27:00,
2013-01-15 02:32:00,16.3,12.6,30.50,East,90,0.0,3.0,85,0.00,,---,0.00,VWS V14.01,2013-01-15 08:32:00,
2013-01-15 02:37:00,16.1,12.4,30.50,East,89,0.0,1.0,85,0.00,,---,0.00,VWS V14.01,2013-01-15 08:37:00,
2013-01-15 02:42:00,15.8,12.1,30.50,East,89,0.0,1.0,85,0.00,,---,0.00,VWS V14.01,2013-01-15 08:42:00,
2013-01-15 02:47:00,15.5,11.8,30.50,East,90,0.0,1.0,85,0.00,,---,0.00,VWS V14.01,2013-01-15 08:47:00,
2013-01-15 02:52:00,15.1,11.4,30.50,East,90,0.0,1.0,85,0.00,,---,0.00,VWS V14.01,2013-01-15 08:52:00,
2013-01-15 02:57:00,14.7,11.3,30.50,East,89,0.0,1.0,86,0.00,,---,0.00,VWS V14.01,2013-01-15 08:57:00,
2013-01-15 03:02:00,14.7,11.5,30.50,East,89,0.0,1.0,87,0.00,,---,0.00,VWS V14.01,2013-01-15 09:02:00,
2013-01-15 03:07:00,14.7,11.5,30.50,East,90,0.0,1.0,87,0.00,,---,0.00,VWS V14.01,2013-01-15 09:07:00,
2013-01-15 03:12:00,14.6,11.4,30.50,East,90,0.0,1.0,87,0.00,,---,0.00,VWS V14.01,2013-01-15 09:12:00,
2013-01-15 03:17:00,14.6,11.4,30.50,ENE,66,2.0,3.0,87,0.00,,---,0.00,VWS V14.01,2013-01-15 09:17:00,
2013-01-15 03:22:00,14.6,11.2,30.50,ENE,73,1.0,3.0,86,0.00,,---,0.00,VWS V14.01,2013-01-15 09:22:00,
2013-01-15 03:27:00,14.7,11.0,30.49,ENE,73,2.0,3.0,85,0.00,,---,0.00,VWS V14.01,2013-01-15 09:27:00,
2013-01-15 03:32:00,14.9,10.9,30.49,ENE,77,1.0,5.0,84,0.00,,---,0.00,VWS V14.01,2013-01-15 09:32:00,
2013-01-15 03:37:00,15.1,10.9,30.48,East,80,1.0,4.0,83,0.00,,---,0.00,VWS V14.01,2013-01-15 09:37:00,
2013-01-15 03:42:00,15.1,10.9,30.48,ENE,68,3.0,5.0,83,0.00,,---,0.00,VWS V14.01,2013-01-15 09:42:00,
2013-01-15 03:47:00,15.3,10.8,30.48,ESE,105,1.0,5.0,82,0.00,,---,0.00,VWS V14.01,2013-01-15 09:47:00,
2013-01-15 03:52:00,15.4,10.6,30.49,ESE,119,1.0,5.0,81,0.00,,---,0.00,VWS V14.01,2013-01-15 09:52:00,
2013-01-15 03:57:00,15.5,10.4,30.49,ESE,123,1.0,5.0,80,0.00,,---,0.00,VWS V14.01,2013-01-15 09:57:00,
2013-01-15 04:02:00,15.4,10.4,30.49,SE,127,1.0,5.0,80,0.00,,---,0.00,VWS V14.01,2013-01-15 10:02:00,
2013-01-15 04:07:00,15.3,10.2,30.49,SE,126,0.0,1.0,80,0.00,,---,0.00,VWS V14.01,2013-01-15 10:07:00,
2013-01-15 04:12:00,15.1,10.1,30.49,SE,126,1.0,1.0,80,0.00,,---,0.00,VWS V14.01,2013-01-15 10:12:00,
2013-01-15 04:17:00,14.9,9.9,30.49,SE,137,1.0,2.0,80,0.00,,---,0.00,VWS V14.01,2013-01-15 10:17:00,
2013-01-15 04:22:00,14.6,9.6,30.49,SE,132,1.0,3.0,80,0.00,,---,0.00,VWS V14.01,2013-01-15 10:22:00,
2013-01-15 04:27:00,14.4,9.6,30.49,SE,132,1.0,3.0,81,0.00,,---,0.00,VWS V14.01,2013-01-15 10:27:00,
2013-01-15 04:32:00,14.3,9.6,30.48,East,94,2.0,3.0,81,0.00,,---,0.00,VWS V14.01,2013-01-15 10:32:00,
2013-01-15 04:37:00,14.2,9.7,30.48,East,94,0.0,2.0,82,0.00,,---,0.00,VWS V14.01,2013-01-15 10:37:00,
2013-01-15 04:42:00,14.2,9.7,30.48,East,90,1.0,2.0,82,0.00,,---,0.00,VWS V14.01,2013-01-15 10:42:00,
2013-01-15 04:47:00,14.1,9.6,30.48,East,97,0.0,2.0,82,0.00,,---,0.00,VWS V14.01,2013-01-15 10:47:00,
2013-01-15 04:52:00,14.2,9.7,30.48,East,89,3.0,3.0,82,0.00,,---,0.00,VWS V14.01,2013-01-15 10:52:00,
2013-01-15 04:57:00,14.5,10.0,30.48,ESE,121,1.0,4.0,82,0.00,,---,0.00,VWS V14.01,2013-01-15 10:57:00,
2013-01-15 05:02:00,14.7,9.9,30.48,East,101,1.0,4.0,81,0.00,,---,0.00,VWS V14.01,2013-01-15 11:02:00,
2013-01-15 05:07:00,14.7,9.9,30.47,ESE,105,1.0,3.0,81,0.00,,---,0.00,VWS V14.01,2013-01-15 11:07:00,
2013-01-15 05:12:00,14.7,9.9,30.47,East,101,2.0,4.0,81,0.00,,---,0.00,VWS V14.01,2013-01-15 11:12:00,
2013-01-15 05:17:00,14.7,9.9,30.47,East,94,3.0,4.0,81,0.00,,---,0.00,VWS V14.01,2013-01-15 11:17:00,
2013-01-15 05:22:00,14.7,9.9,30.47,East,84,5.0,5.0,81,0.00,,---,0.00,VWS V14.01,2013-01-15 11:22:00,
2013-01-15 05:27:00,14.9,10.1,30.47,ESE,120,3.0,6.0,81,0.00,,---,0.00,VWS V14.01,2013-01-15 11:27:00,
2013-01-15 05:32:00,15.2,10.1,30.47,East,96,2.0,6.0,80,0.00,,---,0.00,VWS V14.01,2013-01-15 11:32:00,
2013-01-15 05:37:00,15.2,10.1,30.46,East,96,1.0,4.0,80,0.00,,---,0.00,VWS V14.01,2013-01-15 11:37:00,
2013-01-15 05:42:00,15.2,10.1,30.46,SE,126,1.0,4.0,80,0.00,,---,0.00,VWS V14.01,2013-01-15 11:42:00,
2013-01-15 05:47:00,15.2,10.1,30.46,ESE,112,0.0,4.0,80,0.00,,---,0.00,VWS V14.01,2013-01-15 11:47:00,
2013-01-15 05:52:00,15.0,10.0,30.46,ESE,120,1.0,4.0,80,0.00,,---,0.00,VWS V14.01,2013-01-15 11:52:00,
2013-01-15 05:57:00,14.9,10.1,30.46,ESE,115,0.0,4.0,81,0.00,,---,0.00,VWS V14.01,2013-01-15 11:57:00,
2013-01-15 06:02:00,14.8,10.0,30.46,ESE,118,2.0,4.0,81,0.00,,---,0.00,VWS V14.01,2013-01-15 12:02:00,
2013-01-15 06:07:00,14.9,10.1,30.46,East,94,5.0,5.0,81,0.00,,---,0.00,VWS V14.01,2013-01-15 12:07:00,
2013-01-15 06:12:00,14.9,9.9,30.46,ESE,110,1.0,5.0,80,0.00,,---,0.00,VWS V14.01,2013-01-15 12:12:00,
2013-01-15 06:17:00,14.9,9.9,30.46,ESE,123,1.0,5.0,80,0.00,,---,0.00,VWS V14.01,2013-01-15 12:17:00,
2013-01-15 06:22:00,14.9,9.9,30.46,ESE,118,0.0,5.0,80,0.00,,---,0.00,VWS V14.01,2013-01-15 12:22:00,
2013-01-15 06:27:00,14.9,9.9,30.46,ENE,73,4.0,5.0,80,0.00,,---,0.00,VWS V14.01,2013-01-15 12:27:00,
2013-01-15 06:32:00,15.0,10.2,30.46,East,94,1.0,6.0,81,0.00,,---,0.00,VWS V14.01,2013-01-15 12:32:00,
2013-01-15 06:37:00,15.1,10.1,30.46,ESE,108,2.0,6.0,80,0.00,,---,0.00,VWS V14.01,2013-01-15 12:37:00,
2013-01-15 06:42:00,15.1,10.1,30.46,SE,143,1.0,6.0,80,0.00,,---,0.00,VWS V14.01,2013-01-15 12:42:00,
2013-01-15 06:47:00,15.0,10.0,30.46,ESE,120,1.0,6.0,80,0.00,,---,0.00,VWS V14.01,2013-01-15 12:47:00,
2013-01-15 06:52:00,14.9,9.9,30.46,ESE,115,1.0,6.0,80,0.00,,---,0.00,VWS V14.01,2013-01-15 12:52:00,
2013-01-15 06:57:00,14.6,9.6,30.46,East,84,3.0,6.0,80,0.00,,---,0.00,VWS V14.01,2013-01-15 12:57:00,
2013-01-15 07:02:00,14.6,9.8,30.46,East,88,3.0,6.0,81,0.00,,---,0.00,VWS V14.01,2013-01-15 13:02:00,
2013-01-15 07:07:00,14.6,9.8,30.46,ESE,109,2.0,5.0,81,0.00,,---,0.00,VWS V14.01,2013-01-15 13:07:00,
2013-01-15 07:12:00,14.6,9.8,30.46,East,101,1.0,5.0,81,0.00,,---,0.00,VWS V14.01,2013-01-15 13:12:00,
2013-01-15 07:16:00,14.5,9.7,30.46,ESE,120,0.0,5.0,81,0.00,,---,0.00,VWS V14.01,2013-01-15 13:16:00,
2013-01-15 07:21:00,14.3,9.6,30.46,ESE,110,2.0,5.0,81,0.00,,---,0.00,VWS V14.01,2013-01-15 13:21:00,
2013-01-15 07:26:00,14.4,9.6,30.46,ENE,76,4.0,7.0,81,0.00,,---,0.00,VWS V14.01,2013-01-15 13:26:00,
2013-01-15 07:31:00,14.4,9.6,30.46,ESE,105,1.0,7.0,81,0.00,,---,0.00,VWS V14.01,2013-01-15 13:31:00,
2013-01-15 07:36:00,14.5,9.7,30.46,East,82,3.0,6.0,81,0.00,,---,0.00,VWS V14.01,2013-01-15 13:36:00,
2013-01-15 07:42:00,14.3,9.6,30.46,East,79,1.0,6.0,81,0.00,,---,0.00,VWS V14.01,2013-01-15 13:42:00,
2013-01-15 07:47:00,13.9,9.2,30.46,ENE,77,3.0,6.0,81,0.00,,---,0.00,VWS V14.01,2013-01-15 13:47:00,
2013-01-15 07:52:00,13.6,9.1,30.46,East,83,3.0,6.0,82,0.00,,---,0.00,VWS V14.01,2013-01-15 13:52:00,
2013-01-15 07:57:00,13.4,8.9,30.46,East,94,1.0,6.0,82,0.00,,---,0.00,VWS V14.01,2013-01-15 13:57:00,
2013-01-15 08:02:00,13.4,8.9,30.46,East,94,2.0,6.0,82,0.00,,---,0.00,VWS V14.01,2013-01-15 14:02:00,
2013-01-15 08:07:00,13.3,9.1,30.46,East,95,1.0,5.0,83,0.00,,---,0.00,VWS V14.01,2013-01-15 14:07:00,
2013-01-15 08:12:00,13.3,9.1,30.46,ENE,68,3.0,5.0,83,0.00,,---,0.00,VWS V14.01,2013-01-15 14:12:00,
2013-01-15 08:17:00,13.4,9.2,30.46,East,82,3.0,5.0,83,0.00,,---,0.00,VWS V14.01,2013-01-15 14:17:00,
2013-01-15 08:22:00,13.6,9.4,30.46,ESE,123,1.0,5.0,83,0.00,,---,0.00,VWS V14.01,2013-01-15 14:22:00,
2013-01-15 08:27:00,13.8,9.6,30.45,ESE,121,1.0,5.0,83,0.00,,---,0.00,VWS V14.01,2013-01-15 14:27:00,
2013-01-15 08:32:00,14.1,9.6,30.45,East,101,1.0,5.0,82,0.00,,---,0.00,VWS V14.01,2013-01-15 14:32:00,
2013-01-15 08:36:00,14.3,9.8,30.45,ENE,73,4.0,6.0,82,0.00,,---,0.00,VWS V14.01,2013-01-15 14:36:00,
2013-01-15 08:41:00,14.6,10.1,30.45,East,83,3.0,6.0,82,0.00,,---,0.00,VWS V14.01,2013-01-15 14:41:00,
2013-01-15 08:46:00,14.7,9.9,30.45,ENE,74,4.0,6.0,81,0.00,,---,0.00,VWS V14.01,2013-01-15 14:46:00,
2013-01-15 08:51:00,14.8,10.0,30.45,East,85,2.0,6.0,81,0.00,,---,0.00,VWS V14.01,2013-01-15 14:51:00,
2013-01-15 08:56:00,14.8,10.0,30.45,East,80,3.0,8.0,81,0.00,,---,0.00,VWS V14.01,2013-01-15 14:56:00,
2013-01-15 09:01:00,15.1,10.3,30.45,ESE,111,1.0,8.0,81,0.00,,---,0.00,VWS V14.01,2013-01-15 15:01:00,
2013-01-15 09:06:00,15.4,10.6,30.45,East,80,3.0,7.0,81,0.00,,---,0.00,VWS V14.01,2013-01-15 15:06:00,
2013-01-15 09:11:00,15.8,11.0,30.45,East,81,3.0,9.0,81,0.00,,---,0.00,VWS V14.01,2013-01-15 15:11:00,
2013-01-15 09:16:00,16.2,11.4,30.45,SE,126,1.0,9.0,81,0.00,,---,0.00,VWS V14.01,2013-01-15 15:16:00,
2013-01-15 09:21:00,16.8,11.7,30.45,ESE,110,3.0,9.0,80,0.00,,---,0.00,VWS V14.01,2013-01-15 15:21:00,
2013-01-15 09:26:00,17.4,12.3,30.45,ESE,103,3.0,9.0,80,0.00,,---,0.00,VWS V14.01,2013-01-15 15:26:00,
2013-01-15 09:31:00,17.9,12.5,30.45,ESE,112,5.0,9.0,79,0.00,,---,0.00,VWS V14.01,2013-01-15 15:31:00,
2013-01-15 09:36:00,18.3,12.6,30.45,SE,125,2.0,5.0,78,0.00,,---,0.00,VWS V14.01,2013-01-15 15:36:00,
2013-01-15 09:41:00,18.7,13.0,30.45,ESE,113,4.0,5.0,78,0.00,,---,0.00,VWS V14.01,2013-01-15 15:41:00,
2013-01-15 09:46:00,18.9,12.9,30.45,ESE,111,5.0,8.0,77,0.00,,---,0.00,VWS V14.01,2013-01-15 15:46:00,
2013-01-15 09:51:00,19.3,13.0,30.45,ESE,113,4.0,8.0,76,0.00,,---,0.00,VWS V14.01,2013-01-15 15:51:00,
2013-01-15 09:56:00,19.4,13.1,30.45,SE,140,2.0,8.0,76,0.00,,---,0.00,VWS V14.01,2013-01-15 15:56:00,
2013-01-15 10:01:00,19.5,13.2,30.45,ESE,120,4.0,8.0,76,0.00,,---,0.00,VWS V14.01,2013-01-15 16:01:00,
2013-01-15 10:06:00,19.8,13.8,30.45,ESE,114,5.0,7.0,77,0.00,,---,0.00,VWS V14.01,2013-01-15 16:06:00,
2013-01-15 10:11:00,20.1,13.5,30.45,East,79,4.0,7.0,75,0.00,,---,0.00,VWS V14.01,2013-01-15 16:11:00,
2013-01-15 10:16:00,20.3,13.7,30.45,ESE,120,5.0,8.0,75,0.00,,---,0.00,VWS V14.01,2013-01-15 16:16:00,
2013-01-15 10:21:00,20.5,14.1,30.45,ESE,103,4.0,8.0,76,0.00,,---,0.00,VWS V14.01,2013-01-15 16:21:00,
2013-01-15 10:26:00,20.6,13.9,30.45,ESE,111,9.0,11.0,75,0.00,,---,0.00,VWS V14.01,2013-01-15 16:26:00,
2013-01-15 10:31:00,20.3,13.7,30.45,SE,127,6.0,11.0,75,0.00,,---,0.00,VWS V14.01,2013-01-15 16:31:00,
2013-01-15 10:36:00,20.6,14.6,30.45,East,99,5.0,8.0,77,0.00,,---,0.00,VWS V14.01,2013-01-15 16:36:00,
2013-01-15 10:41:00,20.7,14.4,30.45,East,83,3.0,8.0,76,0.00,,---,0.00,VWS V14.01,2013-01-15 16:41:00,
2013-01-15 10:46:00,20.8,14.4,30.45,SE,128,6.0,8.0,76,0.00,,---,0.00,VWS V14.01,2013-01-15 16:46:00,
2013-01-15 10:51:00,20.7,14.4,30.45,East,101,4.0,10.0,76,0.00,,---,0.00,VWS V14.01,2013-01-15 16:51:00,
2013-01-15 10:56:00,21.2,14.8,30.45,ESE,103,6.0,10.0,76,0.00,,---,0.00,VWS V14.01,2013-01-15 16:56:00,
2013-01-15 11:01:00,21.1,14.7,30.44,ESE,112,7.0,10.0,76,0.00,,---,0.00,VWS V14.01,2013-01-15 17:01:00,
2013-01-15 11:06:00,21.0,14.9,30.44,ESE,113,5.0,8.0,77,0.00,,---,0.00,VWS V14.01,2013-01-15 17:06:00,
2013-01-15 11:11:00,21.2,15.1,30.44,East,94,5.0,9.0,77,0.00,,---,0.00,VWS V14.01,2013-01-15 17:11:00,
2013-01-15 11:16:00,21.5,15.1,30.43,East,88,3.0,9.0,76,0.00,,---,0.00,VWS V14.01,2013-01-15 17:16:00,
2013-01-15 11:21:00,21.9,15.5,30.43,ESE,109,7.0,9.0,76,0.00,,---,0.00,VWS V14.01,2013-01-15 17:21:00,
2013-01-15 11:26:00,22.3,15.9,30.43,ESE,117,8.0,9.0,76,0.00,,---,0.00,VWS V14.01,2013-01-15 17:26:00,
2013-01-15 11:31:00,22.6,16.2,30.43,ESE,116,2.0,9.0,76,0.00,,---,0.00,VWS V14.01,2013-01-15 17:31:00,
2013-01-15 11:36:00,22.9,16.2,30.43,ESE,108,3.0,8.0,75,0.00,,---,0.00,VWS V14.01,2013-01-15 17:36:00,
2013-01-15 11:41:00,23.2,16.2,30.42,East,99,1.0,8.0,74,0.00,,---,0.00,VWS V14.01,2013-01-15 17:41:00,
2013-01-15 11:46:00,23.8,16.7,30.42,East,99,4.0,8.0,74,0.00,,---,0.00,VWS V14.01,2013-01-15 17:46:00,
2013-01-15 11:51:00,24.4,17.0,30.41,East,99,3.0,8.0,73,0.00,,---,0.00,VWS V14.01,2013-01-15 17:51:00,
2013-01-15 11:56:00,24.7,17.0,30.41,ESE,120,3.0,8.0,72,0.00,,---,0.00,VWS V14.01,2013-01-15 17:56:00,
2013-01-15 12:01:00,24.9,16.5,30.41,ESE,115,3.0,9.0,70,0.00,,---,0.00,VWS V14.01,2013-01-15 18:01:00,
2013-01-15 12:06:00,25.2,17.5,30.40,East,83,4.0,9.0,72,0.00,,---,0.00,VWS V14.01,2013-01-15 18:06:00,
2013-01-15 12:11:00,25.7,17.6,30.40,ESE,120,5.0,9.0,71,0.00,,---,0.00,VWS V14.01,2013-01-15 18:11:00,
2013-01-15 12:16:00,26.0,17.2,30.39,East,93,2.0,9.0,69,0.00,,---,0.00,VWS V14.01,2013-01-15 18:16:00,
2013-01-15 12:21:00,26.1,17.0,30.39,ESE,123,7.0,10.0,68,0.00,,---,0.00,VWS V14.01,2013-01-15 18:21:00,
2013-01-15 12:26:00,26.4,17.3,30.39,ESE,120,6.0,10.0,68,0.00,,---,0.00,VWS V14.01,2013-01-15 18:26:00,
2013-01-15 12:31:00,26.7,17.6,30.39,ESE,105,2.0,10.0,68,0.00,,---,0.00,VWS V14.01,2013-01-15 18:31:00,
2013-01-15 12:36:00,27.1,17.6,30.39,ESE,115,6.0,13.0,67,0.00,,---,0.00,VWS V14.01,2013-01-15 18:36:00,
2013-01-15 12:41:00,27.0,17.9,30.39,ESE,117,5.0,13.0,68,0.00,,---,0.00,VWS V14.01,2013-01-15 18:41:00,
2013-01-15 12:46:00,27.1,18.0,30.38,East,94,4.0,13.0,68,0.00,,---,0.00,VWS V14.01,2013-01-15 18:46:00,
2013-01-15 12:51:00,27.4,17.9,30.38,ESE,118,6.0,13.0,67,0.00,,---,0.00,VWS V14.01,2013-01-15 18:51:00,
2013-01-15 12:56:00,27.5,18.0,30.37,ESE,111,3.0,13.0,67,0.00,,---,0.00,VWS V14.01,2013-01-15 18:56:00,
2013-01-15 13:01:00,27.8,18.3,30.37,ENE,69,3.0,13.0,67,0.00,,---,0.00,VWS V14.01,2013-01-15 19:01:00,
2013-01-15 13:06:00,28.1,17.9,30.37,ESE,119,7.0,10.0,65,0.00,,---,0.00,VWS V14.01,2013-01-15 19:06:00,
2013-01-15 13:11:00,28.1,17.9,30.37,ESE,108,4.0,10.0,65,0.00,,---,0.00,VWS V14.01,2013-01-15 19:11:00,
2013-01-15 13:16:00,28.5,18.2,30.36,East,101,2.0,10.0,65,0.00,,---,0.00,VWS V14.01,2013-01-15 19:16:00,
2013-01-15 13:21:00,28.6,17.6,30.36,ENE,68,3.0,10.0,63,0.00,,---,0.00,VWS V14.01,2013-01-15 19:21:00,
2013-01-15 13:26:00,28.7,17.7,30.36,East,95,4.0,11.0,63,0.00,,---,0.00,VWS V14.01,2013-01-15 19:26:00,
2013-01-15 13:31:00,29.0,18.0,30.35,SE,124,8.0,11.0,63,0.00,,---,0.00,VWS V14.01,2013-01-15 19:31:00,
2013-01-15 13:36:00,28.9,17.9,30.35,East,87,7.0,14.0,63,0.00,,---,0.00,VWS V14.01,2013-01-15 19:36:00,
2013-01-15 13:41:00,28.8,17.8,30.34,East,80,8.0,14.0,63,0.00,,---,0.00,VWS V14.01,2013-01-15 19:41:00,
2013-01-15 13:46:00,28.7,17.7,30.34,East,94,7.0,14.0,63,0.00,,---,0.00,VWS V14.01,2013-01-15 19:46:00,
2013-01-15 13:51:00,28.8,17.8,30.34,East,89,7.0,14.0,63,0.00,,---,0.00,VWS V14.01,2013-01-15 19:51:00,
2013-01-15 13:56:00,28.9,17.9,30.34,ESE,106,4.0,14.0,63,0.00,,---,0.00,VWS V14.01,2013-01-15 19:56:00,
2013-01-15 14:01:00,29.1,17.0,30.34,ESE,117,4.0,14.0,60,0.00,,---,0.00,VWS V14.01,2013-01-15 20:01:00,
2013-01-15 14:06:00,29.3,17.1,30.34,East,81,5.0,11.0,60,0.00,,---,0.00,VWS V14.01,2013-01-15 20:06:00,
2013-01-15 14:11:00,29.3,17.1,30.33,ESE,117,11.0,11.0,60,0.00,,---,0.00,VWS V14.01,2013-01-15 20:11:00,
2013-01-15 14:16:00,29.4,16.9,30.33,East,95,6.0,11.0,59,0.00,,---,0.00,VWS V14.01,2013-01-15 20:16:00,
2013-01-15 14:21:00,29.7,17.5,30.33,ESE,112,4.0,11.0,60,0.00,,---,0.00,VWS V14.01,2013-01-15 20:21:00,
2013-01-15 14:26:00,29.7,17.1,30.33,ESE,111,7.0,14.0,59,0.00,,---,0.00,VWS V14.01,2013-01-15 20:26:00,
2013-01-15 14:31:00,29.6,18.6,30.33,ENE,78,11.0,14.0,63,0.00,,---,0.00,VWS V14.01,2013-01-15 20:31:00,
2013-01-15 14:36:00,29.6,18.2,30.33,ENE,78,10.0,13.0,62,0.00,,---,0.00,VWS V14.01,2013-01-15 20:36:00,
2013-01-15 14:41:00,29.5,18.5,30.33,ESE,115,3.0,13.0,63,0.00,,---,0.00,VWS V14.01,2013-01-15 20:41:00,
2013-01-15 14:46:00,29.8,18.4,30.33,NNE,28,5.0,13.0,62,0.00,,---,0.00,VWS V14.01,2013-01-15 20:46:00,
2013-01-15 14:51:00,29.9,18.1,30.34,East,94,4.0,13.0,61,0.00,,---,0.00,VWS V14.01,2013-01-15 20:51:00,
2013-01-15 14:56:00,29.9,18.1,30.34,East,99,4.0,13.0,61,0.00,,---,0.00,VWS V14.01,2013-01-15 20:56:00,
2013-01-15 15:01:00,30.1,18.3,30.34,ENE,75,11.0,13.0,61,0.00,,---,0.00,VWS V14.01,2013-01-15 21:01:00,
2013-01-15 15:06:00,30.2,18.8,30.34,East,96,4.0,9.0,62,0.00,,---,0.00,VWS V14.01,2013-01-15 21:06:00,
2013-01-15 15:11:00,30.2,18.4,30.34,East,92,8.0,10.0,61,0.00,,---,0.00,VWS V14.01,2013-01-15 21:11:00,
2013-01-15 15:16:00,30.2,17.6,30.33,East,95,5.0,14.0,59,0.00,,---,0.00,VWS V14.01,2013-01-15 21:16:00,
2013-01-15 15:21:00,30.2,18.0,30.33,East,85,3.0,14.0,60,0.00,,---,0.00,VWS V14.01,2013-01-15 21:21:00,
2013-01-15 15:26:00,30.3,17.7,30.33,East,85,4.0,14.0,59,0.00,,---,0.00,VWS V14.01,2013-01-15 21:26:00,
2013-01-15 15:31:00,30.5,17.9,30.33,East,86,13.0,14.0,59,0.00,,---,0.00,VWS V14.01,2013-01-15 21:31:00,
2013-01-15 15:36:00,30.2,18.0,30.33,East,89,8.0,12.0,60,0.00,,---,0.00,VWS V14.01,2013-01-15 21:36:00,
2013-01-15 15:41:00,30.3,18.1,30.32,ENE,68,10.0,14.0,60,0.00,,---,0.00,VWS V14.01,2013-01-15 21:41:00,
2013-01-15 15:46:00,30.1,17.9,30.33,East,90,11.0,14.0,60,0.00,,---,0.00,VWS V14.01,2013-01-15 21:46:00,
2013-01-15 15:51:00,30.0,18.2,30.33,East,80,11.0,14.0,61,0.00,,---,0.00,VWS V14.01,2013-01-15 21:51:00,
2013-01-15 15:56:00,30.1,17.5,30.33,East,96,6.0,14.0,59,0.00,,---,0.00,VWS V14.01,2013-01-15 21:56:00,
2013-01-15 16:01:00,30.3,17.3,30.33,East,80,6.0,14.0,58,0.00,,---,0.00,VWS V14.01,2013-01-15 22:01:00,
2013-01-15 16:06:00,30.2,17.2,30.33,ENE,73,7.0,14.0,58,0.00,,---,0.00,VWS V14.01,2013-01-15 22:06:00,
2013-01-15 16:11:00,29.9,16.5,30.33,East,82,8.0,14.0,57,0.00,,---,0.00,VWS V14.01,2013-01-15 22:11:00,
2013-01-15 16:16:00,29.7,17.5,30.33,ENE,68,13.0,16.0,60,0.00,,---,0.00,VWS V14.01,2013-01-15 22:16:00,
2013-01-15 16:21:00,29.5,17.7,30.32,ENE,77,5.0,16.0,61,0.00,,---,0.00,VWS V14.01,2013-01-15 22:21:00,
2013-01-15 16:26:00,29.3,16.8,30.32,ENE,61,11.0,16.0,59,0.00,,---,0.00,VWS V14.01,2013-01-15 22:26:00,
2013-01-15 16:31:00,29.3,17.1,30.32,East,82,10.0,16.0,60,0.00,,---,0.00,VWS V14.01,2013-01-15 22:31:00,
2013-01-15 16:36:00,29.0,17.2,30.32,ENE,57,10.0,14.0,61,0.00,,---,0.00,VWS V14.01,2013-01-15 22:36:00,
2013-01-15 16:41:00,28.8,17.4,30.32,ESE,103,3.0,14.0,62,0.00,,---,0.00,VWS V14.01,2013-01-15 22:41:00,
2013-01-15 16:46:00,28.8,17.4,30.32,East,90,6.0,14.0,62,0.00,,---,0.00,VWS V14.01,2013-01-15 22:46:00,
2013-01-15 16:51:00,28.6,17.2,30.31,ENE,73,8.0,14.0,62,0.00,,---,0.00,VWS V14.01,2013-01-15 22:51:00,
2013-01-15 16:56:00,28.4,17.1,30.31,East,92,6.0,14.0,62,0.00,,---,0.00,VWS V14.01,2013-01-15 22:56:00,
2013-01-15 17:01:00,28.1,16.8,30.32,ENE,76,8.0,14.0,62,0.00,,---,0.00,VWS V14.01,2013-01-15 23:01:00,
2013-01-15 17:06:00,27.9,17.0,30.32,ESE,110,5.0,8.0,63,0.00,,---,0.00,VWS V14.01,2013-01-15 23:06:00,
2013-01-15 17:11:00,27.7,16.8,30.32,East,94,6.0,11.0,63,0.00,,---,0.00,VWS V14.01,2013-01-15 23:11:00,
2013-01-15 17:16:00,27.5,16.9,30.32,East,91,7.0,11.0,64,0.00,,---,0.00,VWS V14.01,2013-01-15 23:16:00,
2013-01-15 17:21:00,27.2,17.0,30.32,East,94,3.0,11.0,65,0.00,,---,0.00,VWS V14.01,2013-01-15 23:21:00,
2013-01-15 17:26:00,27.0,16.5,30.31,ENE,71,7.0,11.0,64,0.00,,---,0.00,VWS V14.01,2013-01-15 23:26:00,
2013-01-15 17:31:00,26.8,16.3,30.31,ESE,103,3.0,11.0,64,0.00,,---,0.00,VWS V14.01,2013-01-15 23:31:00,
2013-01-15 17:36:00,26.6,16.4,30.32,ESE,104,3.0,5.0,65,0.00,,---,0.00,VWS V14.01,2013-01-15 23:36:00,
2013-01-15 17:41:00,26.4,16.6,30.32,East,82,3.0,8.0,66,0.00,,---,0.00,VWS V14.01,2013-01-15 23:41:00,
2013-01-15 17:46:00,26.1,16.7,30.32,East,87,3.0,8.0,67,0.00,,---,0.00,VWS V14.01,2013-01-15 23:46:00,
2013-01-15 17:51:00,25.6,16.5,30.32,ENE,76,7.0,8.0,68,0.00,,---,0.00,VWS V14.01,2013-01-15 23:51:00,
2013-01-15 17:56:00,25.2,16.8,30.32,East,80,7.0,8.0,70,0.00,,---,0.00,VWS V14.01,2013-01-15 23:56:00,
2013-01-15 18:01:00,25.0,16.9,30.32,East,82,4.0,9.0,71,0.00,,---,0.00,VWS V14.01,2013-01-16 00:01:00,
2013-01-15 18:06:00,24.8,16.8,30.32,East,83,4.0,6.0,71,0.00,,---,0.00,VWS V14.01,2013-01-16 00:06:00,
2013-01-15 18:11:00,24.6,16.9,30.32,ENE,76,3.0,6.0,72,0.00,,---,0.00,VWS V14.01,2013-01-16 00:11:00,
2013-01-15 18:16:00,24.5,16.8,30.32,ENE,74,3.0,9.0,72,0.00,,---,0.00,VWS V14.01,2013-01-16 00:16:00,
2013-01-15 18:21:00,24.2,16.8,30.32,ENE,74,4.0,9.0,73,0.00,,---,0.00,VWS V14.01,2013-01-16 00:21:00,
2013-01-15 18:26:00,24.0,16.9,30.31,East,79,4.0,9.0,74,0.00,,---,0.00,VWS V14.01,2013-01-16 00:26:00,
2013-01-15 18:31:00,23.8,16.7,30.31,NE,56,4.0,9.0,74,0.00,,---,0.00,VWS V14.01,2013-01-16 00:31:00,
2013-01-15 18:36:00,23.7,16.6,30.31,ESE,106,5.0,6.0,74,0.00,,---,0.00,VWS V14.01,2013-01-16 00:36:00,
2013-01-15 18:41:00,23.7,16.6,30.31,ENE,74,4.0,9.0,74,0.00,,---,0.00,VWS V14.01,2013-01-16 00:41:00,
2013-01-15 18:46:00,23.6,16.2,30.31,ENE,66,7.0,9.0,73,0.00,,---,0.00,VWS V14.01,2013-01-16 00:46:00,
2013-01-15 18:51:00,23.5,16.1,30.31,East,80,7.0,9.0,73,0.00,,---,0.00,VWS V14.01,2013-01-16 00:51:00,
2013-01-15 18:56:00,23.4,16.4,30.31,East,81,3.0,9.0,74,0.00,,---,0.00,VWS V14.01,2013-01-16 00:56:00,
2013-01-15 19:01:00,23.4,16.4,30.31,East,88,3.0,9.0,74,0.00,,---,0.00,VWS V14.01,2013-01-16 01:01:00,
2013-01-15 19:06:00,23.3,16.2,30.30,ENE,67,6.0,6.0,74,0.00,,---,0.00,VWS V14.01,2013-01-16 01:06:00,
2013-01-15 19:11:00,23.2,15.8,30.30,ESE,111,4.0,8.0,73,0.00,,---,0.00,VWS V14.01,2013-01-16 01:11:00,
2013-01-15 19:16:00,23.4,16.0,30.30,East,88,5.0,9.0,73,0.00,,---,0.00,VWS V14.01,2013-01-16 01:16:00,
2013-01-15 19:21:00,23.4,16.0,30.30,East,94,4.0,9.0,73,0.00,,---,0.00,VWS V14.01,2013-01-16 01:21:00,
2013-01-15 19:26:00,23.3,15.9,30.30,East,87,3.0,9.0,73,0.00,,---,0.00,VWS V14.01,2013-01-16 01:26:00,
2013-01-15 19:31:00,23.1,15.8,30.30,East,97,3.0,9.0,73,0.00,,---,0.00,VWS V14.01,2013-01-16 01:31:00,
2013-01-15 19:36:00,23.1,15.4,30.29,ENE,58,5.0,7.0,72,0.00,,---,0.00,VWS V14.01,2013-01-16 01:36:00,
2013-01-15 19:41:00,22.9,15.2,30.29,East,83,6.0,8.0,72,0.00,,---,0.00,VWS V14.01,2013-01-16 01:41:00,
2013-01-15 19:46:00,22.8,15.1,30.29,East,97,3.0,8.0,72,0.00,,---,0.00,VWS V14.01,2013-01-16 01:46:00,
2013-01-15 19:51:00,22.6,15.3,30.29,East,88,3.0,8.0,73,0.00,,---,0.00,VWS V14.01,2013-01-16 01:51:00,
2013-01-15 19:56:00,22.4,15.1,30.29,ESE,106,2.0,8.0,73,0.00,,---,0.00,VWS V14.01,2013-01-16 01:56:00,
2013-01-15 20:01:00,22.4,15.1,30.28,East,87,3.0,8.0,73,0.00,,---,0.00,VWS V14.01,2013-01-16 02:01:00,
2013-01-15 20:06:00,22.4,14.8,30.28,East,80,7.0,7.0,72,0.00,,---,0.00,VWS V14.01,2013-01-16 02:06:00,
2013-01-15 20:11:00,22.2,14.9,30.27,East,87,5.0,7.0,73,0.00,,---,0.00,VWS V14.01,2013-01-16 02:11:00,
2013-01-15 20:16:00,22.0,14.7,30.27,East,96,6.0,7.0,73,0.00,,---,0.00,VWS V14.01,2013-01-16 02:16:00,
2013-01-15 20:21:00,21.7,14.4,30.27,East,82,4.0,7.0,73,0.00,,---,0.00,VWS V14.01,2013-01-16 02:21:00,
2013-01-15 20:26:00,21.6,14.6,30.27,East,101,1.0,7.0,74,0.00,,---,0.00,VWS V14.01,2013-01-16 02:26:00,
2013-01-15 20:31:00,21.5,14.5,30.27,East,80,4.0,7.0,74,0.00,,---,0.00,VWS V14.01,2013-01-16 02:31:00,
2013-01-15 20:36:00,21.5,14.2,30.27,East,84,4.0,6.0,73,0.00,,---,0.00,VWS V14.01,2013-01-16 02:36:00,
2013-01-15 20:41:00,21.4,14.1,30.27,East,98,3.0,7.0,73,0.00,,---,0.00,VWS V14.01,2013-01-16 02:41:00,
2013-01-15 20:46:00,21.4,14.1,30.27,East,101,2.0,7.0,73,0.00,,---,0.00,VWS V14.01,2013-01-16 02:46:00,
2013-01-15 20:51:00,21.3,14.0,30.26,East,92,3.0,7.0,73,0.00,,---,0.00,VWS V14.01,2013-01-16 02:51:00,
2013-01-15 20:56:00,21.1,13.8,30.26,ESE,106,3.0,7.0,73,0.00,,---,0.00,VWS V14.01,2013-01-16 02:56:00,
2013-01-15 21:01:00,21.1,13.5,30.26,ESE,119,1.0,7.0,72,0.00,,---,0.00,VWS V14.01,2013-01-16 03:01:00,
2013-01-15 21:06:00,21.2,13.3,30.26,SE,129,2.0,5.0,71,0.00,,---,0.00,VWS V14.01,2013-01-16 03:06:00,
2013-01-15 21:11:00,21.5,13.2,30.26,ENE,77,7.0,7.0,70,0.00,,---,0.00,VWS V14.01,2013-01-16 03:11:00,
2013-01-15 21:16:00,21.8,12.9,30.26,East,101,3.0,7.0,68,0.00,,---,0.00,VWS V14.01,2013-01-16 03:16:00,
2013-01-15 21:21:00,22.1,12.8,30.25,SE,132,4.0,9.0,67,0.00,,---,0.00,VWS V14.01,2013-01-16 03:21:00,
2013-01-15 21:26:00,22.2,12.9,30.25,ENE,60,5.0,9.0,67,0.00,,---,0.00,VWS V14.01,2013-01-16 03:26:00,
2013-01-15 21:31:00,22.2,12.6,30.25,East,101,2.0,9.0,66,0.00,,---,0.00,VWS V14.01,2013-01-16 03:31:00,
2013-01-15 21:36:00,22.3,12.7,30.25,ESE,118,4.0,8.0,66,0.00,,---,0.00,VWS V14.01,2013-01-16 03:36:00,
2013-01-15 21:41:00,22.4,12.8,30.25,ESE,104,2.0,8.0,66,0.00,,---,0.00,VWS V14.01,2013-01-16 03:41:00,
2013-01-15 21:46:00,22.5,12.9,30.25,ESE,114,4.0,8.0,66,0.00,,---,0.00,VWS V14.01,2013-01-16 03:46:00,
2013-01-15 21:51:00,22.5,12.5,30.25,East,96,3.0,8.0,65,0.00,,---,0.00,VWS V14.01,2013-01-16 03:51:00,
2013-01-15 21:56:00,22.3,12.3,30.25,ESE,106,3.0,8.0,65,0.00,,---,0.00,VWS V14.01,2013-01-16 03:56:00,
2013-01-15 22:01:00,22.2,12.6,30.24,ENE,74,4.0,8.0,66,0.00,,---,0.00,VWS V14.01,2013-01-16 04:01:00,
2013-01-15 22:06:00,22.1,12.5,30.24,East,81,5.0,6.0,66,0.00,,---,0.00,VWS V14.01,2013-01-16 04:06:00,
2013-01-15 22:11:00,22.0,12.4,30.24,ESE,118,2.0,8.0,66,0.00,,---,0.00,VWS V14.01,2013-01-16 04:11:00,
2013-01-15 22:16:00,21.9,12.3,30.24,ESE,112,4.0,8.0,66,0.00,,---,0.00,VWS V14.01,2013-01-16 04:16:00,
2013-01-15 22:21:00,21.9,12.3,30.24,ESE,112,4.0,8.0,66,0.00,,---,0.00,VWS V14.01,2013-01-16 04:21:00,
2013-01-15 22:26:00,21.9,12.6,30.23,ESE,111,5.0,8.0,67,0.00,,---,0.00,VWS V14.01,2013-01-16 04:26:00,
2013-01-15 22:31:00,21.9,12.6,30.23,ESE,118,3.0,8.0,67,0.00,,---,0.00,VWS V14.01,2013-01-16 04:31:00,
2013-01-15 22:36:00,21.9,12.6,30.23,ESE,103,5.0,8.0,67,0.00,,---,0.00,VWS V14.01,2013-01-16 04:36:00,
2013-01-15 22:41:00,21.8,12.5,30.23,ESE,114,3.0,8.0,67,0.00,,---,0.00,VWS V14.01,2013-01-16 04:41:00,
2013-01-15 22:46:00,21.7,12.4,30.23,ESE,120,3.0,8.0,67,0.00,,---,0.00,VWS V14.01,2013-01-16 04:46:00,
2013-01-15 22:51:00,21.6,12.7,30.23,East,99,3.0,8.0,68,0.00,,---,0.00,VWS V14.01,2013-01-16 04:51:00,
2013-01-15 22:56:00,21.5,12.6,30.23,ESE,108,3.0,8.0,68,0.00,,---,0.00,VWS V14.01,2013-01-16 04:56:00,
2013-01-15 23:00:00,21.3,12.4,30.23,East,94,5.0,8.0,68,0.00,,---,0.00,VWS V14.01,2013-01-16 05:00:00,
2013-01-15 23:01:00,21.3,12.4,30.23,East,91,7.0,8.0,68,0.00,,---,0.00,VWS V14.01,2013-01-16 05:01:00,
2013-01-15 23:03:00,21.2,12.3,30.23,SE,134,3.0,8.0,68,0.00,,---,0.00,VWS V14.01,2013-01-16 05:03:00,
2013-01-15 23:08:00,21.0,12.1,30.22,ENE,63,6.0,9.0,68,0.00,,---,0.00,VWS V14.01,2013-01-16 05:08:00,
2013-01-15 23:13:00,20.9,12.4,30.22,ESE,111,3.0,10.0,69,0.00,,---,0.00,VWS V14.01,2013-01-16 05:13:00,
2013-01-15 23:18:00,20.8,12.2,30.22,NE,55,6.0,10.0,69,0.00,,---,0.00,VWS V14.01,2013-01-16 05:18:00,
2013-01-15 23:23:00,20.6,12.4,30.21,ESE,109,3.0,10.0,70,0.00,,---,0.00,VWS V14.01,2013-01-16 05:23:00,
2013-01-15 23:28:00,20.5,12.3,30.21,ESE,114,2.0,10.0,70,0.00,,---,0.00,VWS V14.01,2013-01-16 05:28:00,
2013-01-15 23:33:00,20.4,12.5,30.21,East,79,5.0,7.0,71,0.00,,---,0.00,VWS V14.01,2013-01-16 05:33:00,
2013-01-15 23:38:00,20.4,12.5,30.21,ESE,111,2.0,10.0,71,0.00,,---,0.00,VWS V14.01,2013-01-16 05:38:00,
2013-01-15 23:43:00,20.3,12.4,30.20,East,101,4.0,10.0,71,0.00,,---,0.00,VWS V14.01,2013-01-16 05:43:00,
2013-01-15 23:48:00,20.3,12.4,30.20,ENE,76,3.0,10.0,71,0.00,,---,0.00,VWS V14.01,2013-01-16 05:48:00,
2013-01-15 23:53:00,20.2,12.3,30.20,ESE,108,3.0,10.0,71,0.00,,---,0.00,VWS V14.01,2013-01-16 05:53:00,
2013-01-15 23:58:00,20.1,12.5,30.20,East,94,3.0,10.0,72,0.00,,---,0.00,VWS V14.01,2013-01-16 05:58:00,